Time;durP1;ratioP1;P1;durP2;ratioP2;P2;SDS_P1;SDS_P2;PMS_P1;PMS_P2;Temp;Humidity;BMP_temperature;BMP_pressure;BME280_temperature;BME280_humidity;BME280_pressure;Samples;Min_cycle;Max_cycle;Signal;HPM_P1;HPM_P2
2023/03/31 10:15:33;;;;;;;;;;;20.40;57.90;;;;;;1416661;26;19932;-80
2023/03/31 10:18:00;;;;;;;;;;;20.40;57.90;;;;;;5056226;28;20354;-81
2023/03/31 10:20:30;;;;;;;;;;;20.40;57.60;;;;;;5037415;28;19913;-75
2023/03/31 10:22:57;;;;;;;;;;;20.40;57.60;;;;;;5064096;28;19919;-76
2023/03/31 10:25:24;;;;;;;;;;;20.40;57.60;;;;;;5046542;28;20392;-76
2023/03/31 10:27:54;;;;;;;;;;;20.40;57.60;;;;;;5048254;28;19912;-75
2023/03/31 10:30:34;;;;;;;;;;;20.40;57.80;;;;;;5065360;28;19923;-82
2023/03/31 10:33:01;;;;;;;;;;;20.40;57.80;;;;;;5030940;28;19916;-74
2023/03/31 10:35:31;;;;;;;;;;;20.40;58.10;;;;;;5036250;28;19916;-78
2023/03/31 10:37:59;;;;;;;;;;;20.40;57.80;;;;;;5049414;28;19917;-73
2023/03/31 10:40:26;;;;;;;;;;;20.40;58.50;;;;;;5050035;28;20397;-78
2023/03/31 10:43:03;;;;;;;;;;;20.40;58.70;;;;;;5073528;28;19917;-75
2023/03/31 10:45:30;;;;;;;;;;;20.40;59.30;;;;;;5050773;28;19943;-73
2023/03/31 10:47:58;;;;;;;;;;;20.30;58.50;;;;;;5052275;28;19916;-75
2023/03/31 10:50:34;;;;;;;;;;;20.30;58.90;;;;;;5070287;28;20315;-75
2023/03/31 10:53:03;;;;;;;;;;;20.40;58.90;;;;;;5053317;28;19913;-74
2023/03/31 10:55:48;;;;;;;;;;;20.30;59.60;;;;;;5055049;28;20460;-71
2023/03/31 10:58:20;;;;;;;;;;;20.30;59.50;;;;;;5073517;28;19954;-79
2023/03/31 11:00:50;;;;;;;;;;;20.30;59.50;;;;;;5054671;28;19916;-72
2023/03/31 11:03:41;;;;;;;;;;;20.30;60.00;;;;;;5037379;28;20370;-79
2023/03/31 11:06:26;;;;;;;;;;;20.30;60.00;;;;;;5072553;28;19955;-74
2023/03/31 11:09:06;;;;;;;;;;;20.30;60.90;;;;;;5068950;28;19909;-76
2023/03/31 11:11:41;;;;;;;;;;;20.30;60.60;;;;;;5068306;28;20013;-80
2023/03/31 11:14:08;;;;;;;;;;;20.30;60.00;;;;;;5067550;28;19954;-74
2023/03/31 11:16:44;;;;;;;;;;;20.30;60.70;;;;;;5056551;28;20018;-72
2023/03/31 11:19:16;;;;;;;;;;;20.30;60.70;;;;;;5065252;28;19920;-77
2023/03/31 11:21:46;;;;;;;;;;;20.20;60.80;;;;;;5055621;28;19974;-71
2023/03/31 11:24:13;;;;;;;;;;;20.20;61.00;;;;;;5055606;28;19912;-74
2023/03/31 11:26:43;;;;;;;;;;;20.30;60.70;;;;;;5073423;28;19916;-81
2023/03/31 11:29:34;;;;;;;;;;;20.20;60.70;;;;;;5056540;28;20022;-77
2023/03/31 11:32:00;;;;;;;;;;;20.20;60.20;;;;;;5062198;28;20370;-77
2023/03/31 11:34:32;;;;;;;;;;;20.20;61.30;;;;;;5073627;28;19913;-78
2023/03/31 11:37:20;;;;;;;;;;;20.20;61.00;;;;;;5056037;28;20259;-78
2023/03/31 11:39:46;;;;;;;;;;;20.20;61.00;;;;;;5053559;28;19927;-72
2023/03/31 11:42:20;;;;;;;;;;;20.20;61.60;;;;;;5072927;28;19922;-78
2023/03/31 11:44:55;;;;;;;;;;;20.10;60.80;;;;;;5056340;28;20001;-77
2023/03/31 11:47:26;;;;;;;;;;;20.10;60.10;;;;;;5088269;28;19912;-78
2023/03/31 11:49:54;;;;;;;;;;;20.10;60.60;;;;;;5095524;28;19908;-77
2023/03/31 11:52:30;;;;;;;;;;;20.10;61.30;;;;;;5064816;28;20347;-77
2023/03/31 11:55:20;;;;;;;;;;;20.10;61.60;;;;;;5057349;28;19954;-77
2023/03/31 11:57:56;;;;;;;;;;;20.00;60.20;;;;;;5074662;28;19912;-77
2023/03/31 12:00:25;;;;;;;;;;;20.00;60.40;;;;;;5095735;28;19920;-77
2023/03/31 12:03:10;;;;;;;;;;;20.00;61.10;;;;;;5075209;28;20277;-78
2023/03/31 12:05:38;;;;;;;;;;;20.00;61.10;;;;;;5074177;28;20286;-77
2023/03/31 12:08:12;;;;;;;;;;;20.00;60.70;;;;;;5056983;28;19912;-77
2023/03/31 12:10:50;;;;;;;;;;;20.00;60.90;;;;;;5049978;28;19920;-77
2023/03/31 12:15:44;;;;;;;;;;;19.90;60.40;;;;;;5069566;28;20024;-77
2023/03/31 12:18:24;;;;;;;;;;;19.90;59.90;;;;;;5055127;28;19947;-77
2023/03/31 12:20:54;;;;;;;;;;;19.80;60.30;;;;;;5050372;28;19954;-78
2023/03/31 12:23:22;;;;;;;;;;;19.90;59.80;;;;;;5057639;28;19908;-77
2023/03/31 12:25:52;;;;;;;;;;;19.80;59.70;;;;;;5035900;28;20155;-77
2023/03/31 12:28:19;;;;;;;;;;;19.80;59.60;;;;;;5054029;28;20008;-77
2023/03/31 12:30:46;;;;;;;;;;;19.80;59.40;;;;;;5056178;28;19909;-77
2023/03/31 12:33:32;;;;;;;;;;;19.80;58.80;;;;;;5054972;28;19908;-78
2023/03/31 12:36:08;;;;;;;;;;;19.80;59.00;;;;;;5042638;28;20483;-78
2023/03/31 12:38:35;;;;;;;;;;;19.80;58.60;;;;;;5065265;28;19928;-78
2023/03/31 12:41:20;;;;;;;;;;;19.80;58.00;;;;;;5065632;28;19912;-76
2023/03/31 12:44:01;;;;;;;;;;;19.80;58.30;;;;;;5074397;28;19909;-77
2023/03/31 12:46:30;;;;;;;;;;;19.70;57.90;;;;;;5055290;28;19920;-77
2023/03/31 12:49:04;;;;;;;;;;;19.70;57.50;;;;;;5078097;28;19904;-77
2023/03/31 12:51:52;;;;;;;;;;;19.70;57.50;;;;;;5039533;28;19919;-77
2023/03/31 12:54:20;;;;;;;;;;;19.70;57.40;;;;;;5053976;28;19919;-77
2023/03/31 12:57:05;;;;;;;;;;;19.70;57.10;;;;;;5071993;28;20366;-77
2023/03/31 12:59:32;;;;;;;;;;;19.70;57.30;;;;;;5082787;28;19920;-77
2023/03/31 13:02:24;;;;;;;;;;;19.70;57.20;;;;;;5094181;28;19915;-77
2023/03/31 13:04:52;;;;;;;;;;;19.60;57.20;;;;;;5077382;28;20385;-76
2023/03/31 13:07:27;;;;;;;;;;;19.60;57.50;;;;;;5073944;28;20286;-77
2023/03/31 13:09:58;;;;;;;;;;;19.60;57.70;;;;;;5074053;28;19919;-77
2023/03/31 13:12:26;;;;;;;;;;;19.50;57.80;;;;;;5073946;28;19920;-77
2023/03/31 21:00:57;;;;;;;;;;;16.80;68.90;;;;;;5052428;28;19990;-77
2023/03/31 21:03:23;;;;;;;;;;;16.70;68.70;;;;;;5071101;28;19919;-74
2023/03/31 21:05:50;;;;;;;;;;;16.80;69.10;;;;;;5052930;28;19916;-75
2023/03/31 21:08:17;;;;;;;;;;;16.80;68.30;;;;;;5045062;28;19913;-75
2023/03/31 21:10:44;;;;;;;;;;;16.80;68.10;;;;;;5061097;28;19959;-75
2023/03/31 21:13:11;;;;;;;;;;;16.90;68.30;;;;;;5064044;28;19913;-77
2023/03/31 21:15:38;;;;;;;;;;;16.90;68.50;;;;;;5066366;28;19955;-77
2023/03/31 21:18:05;;;;;;;;;;;17.00;68.10;;;;;;5051617;28;19920;-77
2023/03/31 21:20:32;;;;;;;;;;;17.00;67.80;;;;;;5057898;28;20438;-77
2023/03/31 21:22:59;;;;;;;;;;;17.10;67.90;;;;;;5044767;28;20551;-77
2023/03/31 21:25:26;;;;;;;;;;;17.20;68.00;;;;;;5073401;28;19909;-77
2023/03/31 21:27:52;;;;;;;;;;;17.20;67.90;;;;;;5039807;28;19908;-75
2023/03/31 21:30:20;;;;;;;;;;;17.20;67.90;;;;;;5043352;28;19913;-77
2023/03/31 21:32:46;;;;;;;;;;;17.30;67.90;;;;;;5033176;28;20378;-75
2023/03/31 21:35:13;;;;;;;;;;;17.30;68.00;;;;;;5051199;28;19915;-81
2023/03/31 21:37:40;;;;;;;;;;;17.30;68.10;;;;;;5051745;28;19912;-77
2023/03/31 21:40:07;;;;;;;;;;;17.40;67.90;;;;;;5031733;28;20382;-77
2023/03/31 21:42:35;;;;;;;;;;;17.40;67.80;;;;;;5043617;28;19913;-79
2023/03/31 21:45:01;;;;;;;;;;;17.50;68.00;;;;;;5050241;28;20059;-70
2023/03/31 21:47:28;;;;;;;;;;;17.60;67.60;;;;;;5049136;28;20484;-76
2023/03/31 21:49:55;;;;;;;;;;;17.70;67.40;;;;;;5053047;28;19923;-74
2023/03/31 21:52:21;;;;;;;;;;;17.70;68.10;;;;;;5047027;28;20337;-74
2023/03/31 21:54:48;;;;;;;;;;;17.70;67.10;;;;;;5034325;28;20055;-74
2023/03/31 21:57:15;;;;;;;;;;;17.80;66.90;;;;;;5032967;28;19920;-75
